Time;durP1;ratioP1;P1;durP2;ratioP2;P2;SDS_P1;SDS_P2;PMS_P1;PMS_P2;Temp;Humidity;BMP_temperature;BMP_pressure;BME280_temperature;BME280_humidity;BME280_pressure;Samples;Min_cycle;Max_cycle;Signal;HPM_P1;HPM_P2
2023/08/06 00:02:04;;;;;;;;;;;;;;;5.80;100.00;98680.47;4992822;28;20309;-94
2023/08/06 00:04:29;;;;;;;;;;;;;;;5.80;100.00;98678.69;4974005;28;19925;-87
2023/08/06 00:06:54;;;;;;;;;;;;;;;5.83;100.00;98669.81;4992342;28;19953;-88
2023/08/06 00:09:19;;;;;;;;;;;;;;;5.72;100.00;98657.09;4974816;28;19918;-89
2023/08/06 00:11:46;;;;;;;;;;;;;;;5.73;100.00;98658.84;4992442;28;20022;-90
2023/08/06 00:14:11;;;;;;;;;;;;;;;5.71;100.00;98659.81;4992209;28;20048;-89
2023/08/06 00:16:37;;;;;;;;;;;;;;;5.60;100.00;98663.72;4992331;28;20004;-87
2023/08/06 00:19:02;;;;;;;;;;;;;;;5.53;100.00;98656.16;4973571;28;20004;-88
2023/08/06 00:21:27;;;;;;;;;;;;;;;5.60;100.00;98658.47;4992184;28;19928;-88
2023/08/06 00:23:52;;;;;;;;;;;;;;;5.63;100.00;98663.63;4992306;28;19964;-88
2023/08/06 08:21:16;;;;;;;;;;;;;;;7.66;100.00;98807.56;5006401;22;19929;-89
2023/08/06 08:23:42;;;;;;;;;;;;;;;7.66;100.00;98811.09;4994338;28;20012;-86
2023/08/06 08:26:07;;;;;;;;;;;;;;;7.47;100.00;98813.72;5011826;28;20369;-86
2023/08/06 08:28:32;;;;;;;;;;;;;;;7.58;100.00;98807.94;5011798;28;19918;-87
2023/08/06 08:30:57;;;;;;;;;;;;;;;7.60;100.00;98819.28;4994171;28;19918;-87
2023/08/06 08:33:23;;;;;;;;;;;;;;;7.48;100.00;98811.91;5011759;28;19924;-86
2023/08/06 08:35:48;;;;;;;;;;;;;;;7.72;100.00;98826.63;5010687;28;20380;-86
2023/08/06 08:38:13;;;;;;;;;;;;;;;7.43;100.00;98825.28;4994067;28;19921;-86
2023/08/06 08:40:44;;;;;;;;;;;;;;;7.51;100.00;98835.50;5011750;28;20308;-87
2023/08/06 08:43:09;;;;;;;;;;;;;;;7.57;100.00;98837.84;5011914;28;19925;-85
2023/08/06 08:45:39;;;;;;;;;;;;;;;7.38;100.00;98849.22;5011726;28;19926;-86
2023/08/06 08:48:05;;;;;;;;;;;;;;;7.64;100.00;98852.47;5011593;28;19918;-86
2023/08/06 08:50:31;;;;;;;;;;;;;;;7.59;100.00;98857.09;4991754;28;19989;-86
2023/08/06 08:52:56;;;;;;;;;;;;;;;7.55;100.00;98856.38;5011567;28;19921;-86
2023/08/06 08:55:21;;;;;;;;;;;;;;;7.55;100.00;98863.44;5014622;28;20360;-87
2023/08/06 08:57:47;;;;;;;;;;;;;;;7.42;100.00;98865.78;5015028;28;20360;-86
2023/08/06 09:00:14;;;;;;;;;;;;;;;7.53;100.00;98874.06;5014884;28;19921;-87
2023/08/06 09:02:40;;;;;;;;;;;;;;;7.41;100.00;98880.72;5014998;28;19914;-86
2023/08/06 09:05:05;;;;;;;;;;;;;;;7.59;100.00;98878.19;5013496;28;19917;-87
2023/08/06 09:07:41;;;;;;;;;;;;;;;7.37;100.00;98883.56;5014793;28;19960;-87
2023/08/06 09:10:06;;;;;;;;;;;;;;;7.52;100.00;98887.31;4996909;28;19917;-87
2023/08/06 09:12:32;;;;;;;;;;;;;;;7.31;100.00;98895.22;5014721;28;20012;-87
2023/08/06 09:14:57;;;;;;;;;;;;;;;7.51;100.00;98896.97;5014712;28;20376;-84
2023/08/06 09:17:22;;;;;;;;;;;;;;;7.42;100.00;98900.03;5014697;28;19918;-86
2023/08/06 09:19:49;;;;;;;;;;;;;;;7.58;100.00;98916.88;5013150;28;19917;-87
2023/08/06 09:22:15;;;;;;;;;;;;;;;7.63;100.00;98922.81;5014365;28;20292;-88
2023/08/06 09:24:43;;;;;;;;;;;;;;;7.94;100.00;98912.66;4996901;28;19917;-88
2023/08/06 09:27:15;;;;;;;;;;;;;;;7.64;100.00;98924.53;5014346;28;19929;-88
2023/08/06 09:29:41;;;;;;;;;;;;;;;7.76;100.00;98928.38;5014229;28;19921;-88
2023/08/06 09:32:07;;;;;;;;;;;;;;;7.86;100.00;98933.25;5014312;28;19928;-88
2023/08/06 09:34:32;;;;;;;;;;;;;;;7.82;100.00;98941.28;5012972;28;19922;-87
2023/08/06 09:36:57;;;;;;;;;;;;;;;8.14;100.00;98935.47;5014101;28;20392;-87
2023/08/06 09:39:29;;;;;;;;;;;;;;;7.94;100.00;98946.94;5014130;28;19940;-87
2023/08/06 09:41:58;;;;;;;;;;;;;;;8.11;100.00;98949.66;5014304;28;20361;-87
2023/08/06 12:55:30;;;;;;;;;;;;;;;9.14;100.00;99105.09;5616059;23;19938;-88
2023/08/06 12:57:55;;;;;;;;;;;;;;;9.18;100.00;99111.97;4996025;28;19921;-87
2023/08/06 13:00:20;;;;;;;;;;;;;;;9.24;100.00;99116.13;4982753;28;19949;-86
2023/08/06 13:02:46;;;;;;;;;;;;;;;9.22;100.00;99123.25;4979855;28;20380;-88
2023/08/06 13:05:11;;;;;;;;;;;;;;;9.55;100.00;99120.75;5004687;28;19964;-88
2023/08/06 13:07:36;;;;;;;;;;;;;;;9.29;100.00;99118.53;5000914;28;19929;-88
2023/08/06 13:10:02;;;;;;;;;;;;;;;9.18;100.00;99114.59;4980070;28;20363;-90
2023/08/06 13:12:27;;;;;;;;;;;;;;;9.18;100.00;99106.69;4985482;28;19926;-87
2023/08/06 13:14:52;;;;;;;;;;;;;;;9.25;100.00;99123.97;5002336;28;20376;-87
2023/08/06 13:17:18;;;;;;;;;;;;;;;9.18;100.00;99119.88;5003954;28;19928;-87
2023/08/06 13:19:44;;;;;;;;;;;;;;;9.24;100.00;99121.41;4981334;28;19941;-88
2023/08/06 13:22:09;;;;;;;;;;;;;;;9.24;100.00;99121.41;4980811;28;19921;-86
2023/08/06 13:24:35;;;;;;;;;;;;;;;9.18;100.00;99111.13;4984189;28;19952;-86
2023/08/06 13:27:01;;;;;;;;;;;;;;;9.27;100.00;99118.59;4979510;28;20296;-88
2023/08/06 13:29:27;;;;;;;;;;;;;;;9.14;100.00;99114.81;4982397;28;19949;-87
2023/08/06 13:31:52;;;;;;;;;;;;;;;9.19;100.00;99121.63;5002238;28;20352;-86
2023/08/06 13:34:17;;;;;;;;;;;;;;;9.23;100.00;99122.31;5004437;28;19921;-89
2023/08/06 13:36:43;;;;;;;;;;;;;;;9.27;100.00;99122.09;5000877;28;19926;-88
2023/08/06 13:39:08;;;;;;;;;;;;;;;9.42;100.00;99132.88;5001100;28;19921;-88
2023/08/06 13:41:33;;;;;;;;;;;;;;;9.35;100.00;99134.06;4996252;28;20443;-89
2023/08/06 13:43:59;;;;;;;;;;;;;;;9.23;100.00;99136.38;4999220;28;20372;-89
2023/08/06 13:46:24;;;;;;;;;;;;;;;9.32;100.00;99132.47;5000178;28;20020;-87
2023/08/06 13:48:50;;;;;;;;;;;;;;;9.29;100.00;99139.69;5000120;28;19922;-87
2023/08/06 13:51:16;;;;;;;;;;;;;;;9.47;100.00;99159.94;4998955;28;20456;-87
2023/08/06 13:53:41;;;;;;;;;;;;;;;9.93;100.00;99152.38;4999290;28;20016;-88
2023/08/06 13:56:07;;;;;;;;;;;;;;;9.64;100.00;99157.31;4997490;28;20348;-87
2023/08/06 13:58:32;;;;;;;;;;;;;;;9.69;100.00;99156.25;4998399;28;20397;-87
2023/08/06 14:00:58;;;;;;;;;;;;;;;9.52;100.00;99157.06;5000231;28;19953;-90
2023/08/06 14:03:23;;;;;;;;;;;;;;;9.44;100.00;99168.00;5000887;28;19922;-90
2023/08/06 14:05:49;;;;;;;;;;;;;;;9.54;100.00;99177.25;5000270;28;19930;-89
2023/08/06 14:08:14;;;;;;;;;;;;;;;9.38;100.00;99182.41;5000076;28;19975;-87
2023/08/06 14:10:40;;;;;;;;;;;;;;;9.40;100.00;99179.69;4999258;28;19925;-87
2023/08/06 14:13:05;;;;;;;;;;;;;;;9.48;100.00;99181.94;5001755;28;19925;-88
2023/08/06 14:15:31;;;;;;;;;;;;;;;9.35;100.00;99194.88;4997786;28;20017;-87
2023/08/06 14:17:56;;;;;;;;;;;;;;;9.37;100.00;99185.13;5000740;28;20399;-87
2023/08/06 14:20:21;;;;;;;;;;;;;;;9.25;100.00;99184.78;5002408;28;20333;-87
2023/08/06 14:22:46;;;;;;;;;;;;;;;9.30;100.00;99199.53;5003292;28;19922;-89
2023/08/06 14:25:12;;;;;;;;;;;;;;;9.29;100.00;99192.56;5001387;28;19917;-87
2023/08/06 14:27:38;;;;;;;;;;;;;;;9.25;100.00;99198.00;4999093;28;19937;-86
2023/08/06 14:30:05;;;;;;;;;;;;;;;9.37;100.00;99206.28;4998297;28;19922;-88
2023/08/06 14:32:31;;;;;;;;;;;;;;;9.32;100.00;99214.41;4999892;28;19933;-87
2023/08/06 14:34:56;;;;;;;;;;;;;;;9.27;100.00;99230.50;5002293;28;19922;-86
2023/08/06 14:37:21;;;;;;;;;;;;;;;9.13;100.00;99222.34;4997718;28;19928;-87
2023/08/06 14:39:46;;;;;;;;;;;;;;;9.26;100.00;99236.69;4993906;28;19928;-87
2023/08/06 14:42:12;;;;;;;;;;;;;;;9.60;100.00;99250.97;4998547;28;20411;-85
2023/08/06 14:44:37;;;;;;;;;;;;;;;9.35;100.00;99250.41;5001020;28;20762;-90
2023/08/06 14:47:02;;;;;;;;;;;;;;;9.32;100.00;99246.13;4998402;28;19922;-85
2023/08/06 14:49:28;;;;;;;;;;;;;;;9.46;100.00;99240.19;5000117;28;19932;-86
2023/08/06 14:51:53;;;;;;;;;;;;;;;9.70;100.00;99245.25;4992831;28;19922;-86
2023/08/06 14:54:18;;;;;;;;;;;;;;;9.66;100.00;99252.50;4998497;28;19926;-86
2023/08/06 14:56:44;;;;;;;;;;;;;;;9.35;100.00;99258.34;4996088;28;19958;-86
2023/08/06 14:59:12;;;;;;;;;;;;;;;9.56;100.00;99254.72;4996306;28;20301;-86
2023/08/06 15:01:37;;;;;;;;;;;;;;;9.28;100.00;99260.41;5000561;28;19960;-85
2023/08/06 15:04:02;;;;;;;;;;;;;;;9.75;100.00;99262.63;4999803;28;19957;-85
2023/08/06 15:06:28;;;;;;;;;;;;;;;9.52;100.00;99261.06;5012783;28;19925;-85
2023/08/06 15:08:57;;;;;;;;;;;;;;;12.70;100.00;99252.19;5001818;28;19956;-85
2023/08/06 15:11:23;;;;;;;;;;;;;;;10.28;100.00;99266.22;4995445;28;19922;-84
2023/08/06 15:13:48;;;;;;;;;;;;;;;9.88;100.00;99286.72;5000113;28;19976;-85
2023/08/06 15:16:13;;;;;;;;;;;;;;;9.70;100.00;99283.16;5001352;28;20431;-85
2023/08/06 15:18:38;;;;;;;;;;;;;;;9.54;100.00;99276.84;4998138;28;20276;-85
2023/08/06 15:21:04;;;;;;;;;;;;;;;9.60;100.00;99288.00;4997000;28;19926;-87
2023/08/06 15:23:29;;;;;;;;;;;;;;;9.66;100.00;99288.66;4996895;28;20005;-85
2023/08/06 15:25:55;;;;;;;;;;;;;;;9.80;100.00;99299.47;4997531;28;20357;-85
2023/08/06 15:28:20;;;;;;;;;;;;;;;9.53;100.00;99293.69;4997835;28;19943;-85
2023/08/06 15:30:50;;;;;;;;;;;;;;;9.54;100.00;99298.03;5000559;28;20028;-85
2023/08/06 15:33:15;;;;;;;;;;;;;;;9.37;100.00;99302.31;4998320;28;19937;-84
2023/08/06 15:35:40;;;;;;;;;;;;;;;9.47;100.00;99302.75;4998512;28;20493;-86
2023/08/06 15:38:06;;;;;;;;;;;;;;;9.67;100.00;99298.31;4998786;28;20368;-86
2023/08/06 15:40:31;;;;;;;;;;;;;;;9.80;100.00;99310.03;4998705;28;19921;-85
2023/08/06 15:42:56;;;;;;;;;;;;;;;9.47;100.00;99310.66;4999660;28;19917;-85
2023/08/06 15:45:21;;;;;;;;;;;;;;;9.45;100.00;99310.75;5002125;28;19969;-85
2023/08/06 15:47:46;;;;;;;;;;;;;;;9.38;100.00;99308.44;4999227;28;19918;-85
2023/08/06 15:50:12;;;;;;;;;;;;;;;9.30;100.00;99300.84;4995718;28;19925;-86
2023/08/06 15:52:37;;;;;;;;;;;;;;;9.54;100.00;99300.66;4999049;28;19926;-87
2023/08/06 15:55:05;;;;;;;;;;;;;;;9.56;100.00;99323.47;5000152;28;19926;-85
2023/08/06 15:57:31;;;;;;;;;;;;;;;9.53;100.00;99317.47;4999661;28;19922;-86
2023/08/06 15:59:56;;;;;;;;;;;;;;;9.49;100.00;99319.38;4997653;28;20004;-86
2023/08/06 16:02:21;;;;;;;;;;;;;;;9.44;100.00;99330.19;5000582;28;20068;-85
2023/08/06 16:04:46;;;;;;;;;;;;;;;9.34;100.00;99334.16;4998800;28;19926;-84
2023/08/06 16:07:12;;;;;;;;;;;;;;;9.67;100.00;99353.84;5002591;28;19921;-86
2023/08/06 16:09:37;;;;;;;;;;;;;;;9.52;100.00;99347.50;5001268;28;19925;-85
2023/08/06 16:12:03;;;;;;;;;;;;;;;9.55;100.00;99342.06;5005254;28;19921;-87
2023/08/06 16:14:28;;;;;;;;;;;;;;;9.51;100.00;99345.75;5004998;28;19952;-86
2023/08/06 16:16:54;;;;;;;;;;;;;;;9.61;100.00;99342.63;5006009;28;20574;-85
2023/08/06 16:19:19;;;;;;;;;;;;;;;9.61;100.00;99347.06;4994963;28;20328;-86
2023/08/06 16:21:45;;;;;;;;;;;;;;;9.53;100.00;99346.56;5002191;28;20016;-84
2023/08/06 16:24:10;;;;;;;;;;;;;;;9.41;100.00;99345.31;4997863;28;19918;-85
2023/08/06 16:26:36;;;;;;;;;;;;;;;9.40;100.00;99349.75;4999072;28;20403;-85
2023/08/06 16:29:01;;;;;;;;;;;;;;;9.74;100.00;99357.94;4999790;28;19924;-85
2023/08/06 16:31:26;;;;;;;;;;;;;;;9.46;100.00;99348.63;5001210;28;19925;-85
2023/08/06 16:33:51;;;;;;;;;;;;;;;9.40;100.00;99354.22;4998993;28;19918;-86
2023/08/06 16:36:17;;;;;;;;;;;;;;;9.85;100.00;99354.81;5000783;28;20132;-85
2023/08/06 16:38:42;;;;;;;;;;;;;;;9.47;100.00;99352.13;4995855;28;19918;-86
2023/08/06 16:41:07;;;;;;;;;;;;;;;9.58;100.00;99353.34;4999273;28;19929;-86
2023/08/06 16:43:33;;;;;;;;;;;;;;;9.48;100.00;99351.19;4995935;28;19972;-85
2023/08/06 16:45:58;;;;;;;;;;;;;;;9.37;100.00;99349.91;4999187;28;19936;-85
2023/08/06 16:48:26;;;;;;;;;;;;;;;9.55;100.00;99348.19;4996032;28;20463;-85
2023/08/06 16:50:56;;;;;;;;;;;;;;;9.53;100.00;99357.16;4995823;28;19929;-86
2023/08/06 16:53:44;;;;;;;;;;;;;;;9.36;100.00;99352.63;5000684;28;19925;-87
2023/08/06 16:56:10;;;;;;;;;;;;;;;9.38;100.00;99353.41;4985683;28;19932;-86
2023/08/06 16:58:35;;;;;;;;;;;;;;;9.57;100.00;99367.53;5001832;23;20016;-86
2023/08/06 17:01:04;;;;;;;;;;;;;;;9.50;100.00;99360.78;4984971;28;20451;-83
2023/08/06 17:03:30;;;;;;;;;;;;;;;9.61;100.00;99371.72;4990905;28;19926;-83
2023/08/06 17:05:55;;;;;;;;;;;;;;;9.47;100.00;99370.66;4986782;28;19921;-84
2023/08/06 17:08:21;;;;;;;;;;;;;;;9.60;100.00;99369.16;4985747;28;20262;-84
2023/08/06 17:10:46;;;;;;;;;;;;;;;9.37;100.00;99375.50;4983631;28;20506;-84
2023/08/06 17:13:11;;;;;;;;;;;;;;;9.48;100.00;99381.16;4983346;28;19930;-85
2023/08/06 17:15:36;;;;;;;;;;;;;;;9.33;100.00;99373.91;4984992;28;19940;-86
2023/08/06 17:18:02;;;;;;;;;;;;;;;9.45;100.00;99383.94;4984371;28;19922;-87
2023/08/06 17:20:27;;;;;;;;;;;;;;;9.51;100.00;99386.31;4986300;28;20568;-84
2023/08/06 17:22:52;;;;;;;;;;;;;;;9.54;100.00;99399.41;4984580;28;19932;-85
2023/08/06 17:25:20;;;;;;;;;;;;;;;9.57;100.00;99390.44;4984709;28;19937;-84
2023/08/06 17:27:46;;;;;;;;;;;;;;;9.46;100.00;99412.09;4985553;28;20389;-86
2023/08/06 17:30:11;;;;;;;;;;;;;;;9.67;100.00;99393.53;4984869;28;19926;-85
2023/08/06 17:32:39;;;;;;;;;;;;;;;9.59;100.00;99397.41;4985783;28;19961;-85
2023/08/06 17:35:05;;;;;;;;;;;;;;;9.60;100.00;99407.03;4983775;28;19922;-84
2023/08/06 17:37:30;;;;;;;;;;;;;;;9.77;100.00;99423.97;4984285;28;19932;-84
2023/08/06 17:39:56;;;;;;;;;;;;;;;9.66;100.00;99413.84;4985255;28;19922;-85
2023/08/06 17:42:21;;;;;;;;;;;;;;;9.62;100.00;99413.13;4983121;28;19926;-83
2023/08/06 17:44:47;;;;;;;;;;;;;;;9.69;100.00;99415.50;4988487;28;19926;-84
2023/08/06 17:47:12;;;;;;;;;;;;;;;9.73;100.00;99414.44;4981272;28;19926;-87
2023/08/06 17:49:37;;;;;;;;;;;;;;;9.68;100.00;99432.31;4984135;28;19922;-84
2023/08/06 17:52:06;;;;;;;;;;;;;;;9.57;100.00;99432.78;4984547;28;20030;-88
2023/08/06 17:54:31;;;;;;;;;;;;;;;9.47;100.00;99434.97;4982237;28;19929;-86
2023/08/06 17:56:56;;;;;;;;;;;;;;;9.35;100.00;99438.13;4983980;28;19918;-87
2023/08/06 17:59:24;;;;;;;;;;;;;;;9.33;100.00;99442.66;4983126;28;19926;-86
2023/08/06 18:01:49;;;;;;;;;;;;;;;9.43;100.00;99449.28;4984678;28;19925;-84
2023/08/06 18:04:15;;;;;;;;;;;;;;;9.55;100.00;99454.00;4984595;28;19929;-86
2023/08/06 18:06:40;;;;;;;;;;;;;;;9.37;100.00;99460.09;4983871;28;20398;-85
2023/08/06 18:09:05;;;;;;;;;;;;;;;9.52;100.00;99471.78;4982323;28;19996;-85
2023/08/06 18:11:33;;;;;;;;;;;;;;;9.36;100.00;99464.50;4981461;28;19933;-86
2023/08/06 18:13:58;;;;;;;;;;;;;;;9.43;100.00;99476.56;4998491;28;19922;-85
2023/08/06 18:16:23;;;;;;;;;;;;;;;9.43;100.00;99475.72;4982559;28;20017;-84
2023/08/06 18:18:52;;;;;;;;;;;;;;;9.50;100.00;99477.16;4980292;28;19922;-86
2023/08/06 18:21:17;;;;;;;;;;;;;;;9.55;100.00;99479.59;4984200;28;19922;-86
2023/08/06 18:23:43;;;;;;;;;;;;;;;9.74;100.00;99480.50;4983633;28;19977;-86
2023/08/06 18:26:08;;;;;;;;;;;;;;;9.54;100.00;99473.47;4983361;28;20365;-85
2023/08/06 18:28:33;;;;;;;;;;;;;;;9.57;100.00;99478.63;4981031;28;19924;-83
2023/08/06 18:30:58;;;;;;;;;;;;;;;9.42;100.00;99485.41;4985312;28;19926;-84
2023/08/06 18:33:24;;;;;;;;;;;;;;;9.60;100.00;99482.91;4983567;28;19926;-84
2023/08/06 18:35:49;;;;;;;;;;;;;;;9.78;100.00;99481.22;4983307;28;20013;-84
2023/08/06 18:38:14;;;;;;;;;;;;;;;9.53;100.00;99479.66;4991103;28;19922;-85
2023/08/06 18:40:39;;;;;;;;;;;;;;;9.59;100.00;99476.75;4980128;28;19922;-85
2023/08/06 18:43:05;;;;;;;;;;;;;;;9.51;100.00;99483.28;4983204;28;19925;-85
2023/08/06 18:45:38;;;;;;;;;;;;;;;9.53;100.00;99482.31;4984969;28;19973;-84
2023/08/06 18:48:04;;;;;;;;;;;;;;;9.45;100.00;99479.13;4982411;28;19922;-84
2023/08/06 18:50:30;;;;;;;;;;;;;;;9.74;100.00;99482.31;4982139;28;19969;-84
2023/08/06 18:52:55;;;;;;;;;;;;;;;9.53;100.00;99486.75;4984036;28;20300;-84
2023/08/06 18:55:20;;;;;;;;;;;;;;;9.52;100.00;99487.66;4997414;28;19918;-84
2023/08/06 18:57:45;;;;;;;;;;;;;;;9.64;100.00;99488.00;4982976;28;19928;-84
2023/08/06 19:00:11;;;;;;;;;;;;;;;9.51;100.00;99489.47;4983527;28;20278;-84
2023/08/06 19:02:36;;;;;;;;;;;;;;;9.60;100.00;99483.75;4983301;28;19929;-84
2023/08/06 19:05:02;;;;;;;;;;;;;;;9.63;100.00;99494.19;4982316;28;20288;-84
2023/08/06 19:07:28;;;;;;;;;;;;;;;9.51;100.00;99493.88;4981146;28;19921;-85
2023/08/06 19:09:53;;;;;;;;;;;;;;;9.51;100.00;99494.75;4982315;28;20332;-85
2023/08/06 19:12:20;;;;;;;;;;;;;;;9.53;100.00;99495.53;4981986;28;20381;-84
2023/08/06 19:14:46;;;;;;;;;;;;;;;9.48;100.00;99505.47;4983845;28;20009;-87
2023/08/06 19:17:11;;;;;;;;;;;;;;;9.52;100.00;99507.03;4981660;28;20000;-84
2023/08/06 19:19:36;;;;;;;;;;;;;;;9.44;100.00;99501.22;4983883;28;19921;-85
2023/08/06 19:22:01;;;;;;;;;;;;;;;9.54;100.00;99499.91;4983431;28;19957;-85
2023/08/06 19:24:27;;;;;;;;;;;;;;;9.55;100.00;99496.31;4981076;28;19982;-84
2023/08/06 19:26:52;;;;;;;;;;;;;;;9.50;100.00;99493.03;4982945;28;20016;-84
2023/08/06 19:29:17;;;;;;;;;;;;;;;9.68;100.00;99503.72;4982765;28;19918;-85
2023/08/06 19:31:43;;;;;;;;;;;;;;;9.51;100.00;99496.50;4982381;28;19926;-84
2023/08/06 19:34:08;;;;;;;;;;;;;;;9.58;100.00;99497.97;4982912;28;19924;-84
2023/08/06 19:36:33;;;;;;;;;;;;;;;9.53;100.00;99503.47;4982860;28;20361;-85
2023/08/06 19:39:08;;;;;;;;;;;;;;;9.53;100.00;99508.75;4982924;28;19956;-84
2023/08/06 19:41:33;;;;;;;;;;;;;;;9.51;100.00;99504.44;4981676;28;19918;-86
2023/08/06 19:43:58;;;;;;;;;;;;;;;9.51;100.00;99505.34;4982765;28;20289;-84
2023/08/06 19:46:23;;;;;;;;;;;;;;;9.64;100.00;99509.16;4982886;28;19940;-85
2023/08/06 19:48:50;;;;;;;;;;;;;;;9.66;100.00;99518.81;4989086;28;19918;-85
2023/08/06 19:51:17;;;;;;;;;;;;;;;9.62;100.00;99508.38;4983320;28;19988;-86
2023/08/06 19:53:42;;;;;;;;;;;;;;;9.76;100.00;99517.47;4983091;28;20016;-87
2023/08/06 19:56:07;;;;;;;;;;;;;;;9.84;100.00;99518.00;4981822;28;20004;-86
2023/08/06 19:58:33;;;;;;;;;;;;;;;9.86;100.00;99516.16;4982814;28;20626;-86
2023/08/06 20:00:59;;;;;;;;;;;;;;;9.59;100.00;99519.09;4982273;28;19970;-87
2023/08/06 20:03:24;;;;;;;;;;;;;;;9.67;100.00;99520.53;4981831;28;20334;-86
2023/08/06 20:05:50;;;;;;;;;;;;;;;9.81;100.00;99523.41;4982651;28;19980;-86
2023/08/06 20:08:15;;;;;;;;;;;;;;;9.90;100.00;99530.97;4982703;28;20290;-86
2023/08/06 20:10:46;;;;;;;;;;;;;;;9.82;100.00;99530.44;4983031;28;19925;-92
2023/08/06 20:13:11;;;;;;;;;;;;;;;9.61;100.00;99527.81;4985643;28;19973;-86
2023/08/06 20:15:37;;;;;;;;;;;;;;;9.67;100.00;99531.09;4982181;28;20441;-89
2023/08/06 20:18:02;;;;;;;;;;;;;;;9.62;100.00;99524.25;4982830;28;19926;-88
2023/08/06 20:20:27;;;;;;;;;;;;;;;9.55;100.00;99530.72;4983486;28;19914;-91
2023/08/06 20:22:53;;;;;;;;;;;;;;;9.60;100.00;99525.22;4982398;28;19922;-87
2023/08/06 20:25:18;;;;;;;;;;;;;;;9.69;100.00;99529.28;4988411;28;19926;-83
2023/08/06 20:27:43;;;;;;;;;;;;;;;9.60;100.00;99534.00;4997684;28;19925;-87
2023/08/06 20:30:09;;;;;;;;;;;;;;;9.71;100.00;99530.06;4982540;28;20399;-88
2023/08/06 20:32:34;;;;;;;;;;;;;;;9.67;100.00;99537.28;4982783;28;20075;-90
2023/08/06 20:35:02;;;;;;;;;;;;;;;9.64;100.00;99542.69;4981804;28;19921;-85
2023/08/06 20:37:27;;;;;;;;;;;;;;;12.58;100.00;99524.03;4981175;28;19922;-85
2023/08/06 20:39:53;;;;;;;;;;;;;;;10.35;100.00;99529.88;4980712;28;20038;-85
2023/08/06 20:42:18;;;;;;;;;;;;;;;10.08;100.00;99545.16;4982259;28;19925;-85
2023/08/06 20:44:45;;;;;;;;;;;;;;;9.83;100.00;99542.75;4982724;28;19918;-85
2023/08/06 20:47:10;;;;;;;;;;;;;;;9.77;100.00;99543.03;4982483;28;19918;-85
2023/08/06 20:49:35;;;;;;;;;;;;;;;9.76;100.00;99539.50;4981166;28;20270;-86
2023/08/06 20:52:01;;;;;;;;;;;;;;;9.76;100.00;99546.59;4985703;28;19918;-86
2023/08/06 20:54:29;;;;;;;;;;;;;;;9.73;100.00;99552.88;4985542;28;19921;-86
2023/08/06 20:56:54;;;;;;;;;;;;;;;9.61;100.00;99548.97;4984854;28;19993;-88
2023/08/06 20:59:20;;;;;;;;;;;;;;;9.70;100.00;99552.13;4985567;28;19918;-88
2023/08/06 21:01:45;;;;;;;;;;;;;;;9.63;100.00;99562.13;4984219;28;19929;-88
2023/08/06 21:04:12;;;;;;;;;;;;;;;9.63;100.00;99567.41;4984496;28;19922;-86
2023/08/06 21:06:38;;;;;;;;;;;;;;;9.80;100.00;99564.06;4985787;28;19923;-85
2023/08/06 21:09:03;;;;;;;;;;;;;;;9.72;100.00;99572.31;4984867;28;20427;-85
2023/08/06 21:11:28;;;;;;;;;;;;;;;9.93;100.00;99572.31;4982788;28;19929;-86
2023/08/06 21:13:54;;;;;;;;;;;;;;;9.71;100.00;99572.38;4985572;28;19918;-86
2023/08/06 21:16:19;;;;;;;;;;;;;;;9.62;100.00;99574.50;4985580;28;20784;-87
2023/08/06 21:18:44;;;;;;;;;;;;;;;9.71;100.00;99582.97;4983540;28;19924;-85
2023/08/06 21:21:09;;;;;;;;;;;;;;;9.60;100.00;99589.56;4985372;28;19965;-85
2023/08/06 21:23:35;;;;;;;;;;;;;;;9.66;100.00;99592.91;4985369;28;19973;-85
2023/08/06 21:26:04;;;;;;;;;;;;;;;9.63;100.00;99592.06;4984199;28;19922;-86
2023/08/06 21:28:30;;;;;;;;;;;;;;;9.54;100.00;99595.13;4983907;28;19925;-86
2023/08/06 21:30:56;;;;;;;;;;;;;;;9.54;100.00;99587.19;4984760;28;19925;-85
2023/08/06 21:33:26;;;;;;;;;;;;;;;9.75;100.00;99593.34;4984009;28;20285;-85
2023/08/06 21:35:52;;;;;;;;;;;;;;;9.62;100.00;99597.44;4985176;28;19996;-87
2023/08/06 21:38:17;;;;;;;;;;;;;;;9.57;100.00;99604.69;4984046;28;20405;-85
2023/08/06 21:40:42;;;;;;;;;;;;;;;9.58;100.00;99609.09;4983776;28;20016;-85
2023/08/06 21:43:07;;;;;;;;;;;;;;;9.56;100.00;99605.66;4985293;28;19980;-85
2023/08/06 21:45:36;;;;;;;;;;;;;;;9.53;100.00;99603.97;4985381;28;20396;-85
2023/08/06 21:48:01;;;;;;;;;;;;;;;9.55;100.00;99607.41;5000299;28;19929;-85
2023/08/06 21:50:26;;;;;;;;;;;;;;;9.56;100.00;99606.50;4984783;28;19922;-85
2023/08/06 21:52:52;;;;;;;;;;;;;;;9.75;100.00;99605.75;4983568;28;20520;-85
2023/08/06 21:55:17;;;;;;;;;;;;;;;9.63;100.00;99609.75;4984686;28;20013;-85
2023/08/06 21:57:42;;;;;;;;;;;;;;;9.65;100.00;99613.19;4984631;28;19926;-88
2023/08/06 22:00:08;;;;;;;;;;;;;;;9.52;100.00;99606.69;4984524;28;19922;-85
2023/08/06 22:02:34;;;;;;;;;;;;;;;9.57;100.00;99610.88;4983534;28;20400;-85
2023/08/06 22:04:59;;;;;;;;;;;;;;;9.58;100.00;99609.09;4985009;28;19918;-85
2023/08/06 22:07:24;;;;;;;;;;;;;;;9.58;100.00;99612.56;4984616;28;19914;-85
2023/08/06 22:09:49;;;;;;;;;;;;;;;9.73;100.00;99615.50;4982775;28;20005;-85
2023/08/06 22:12:15;;;;;;;;;;;;;;;9.59;100.00;99603.72;4983618;28;20412;-87
2023/08/06 22:14:47;;;;;;;;;;;;;;;9.66;100.00;99599.03;4983005;28;20012;-83
2023/08/06 22:17:12;;;;;;;;;;;;;;;9.56;100.00;99605.66;4984586;28;19922;-86
2023/08/06 22:19:43;;;;;;;;;;;;;;;9.70;100.00;99610.34;4984650;28;19980;-85
2023/08/06 22:22:09;;;;;;;;;;;;;;;9.66;100.00;99601.69;4984348;28;19918;-85
2023/08/06 22:24:34;;;;;;;;;;;;;;;9.55;100.00;99612.69;4981145;28;19933;-86
2023/08/06 22:26:59;;;;;;;;;;;;;;;9.67;100.00;99600.75;4984011;28;19929;-85
2023/08/06 22:29:24;;;;;;;;;;;;;;;9.59;100.00;99600.22;4983894;28;20420;-86
2023/08/06 22:31:50;;;;;;;;;;;;;;;9.60;100.00;99605.44;4984350;28;19917;-86
2023/08/06 22:34:15;;;;;;;;;;;;;;;9.70;100.00;99610.34;4984186;28;20281;-86
2023/08/06 22:36:40;;;;;;;;;;;;;;;9.61;100.00;99604.50;4983638;28;19965;-86
2023/08/06 22:39:05;;;;;;;;;;;;;;;9.60;100.00;99612.50;4983908;28;19962;-86
2023/08/06 22:41:40;;;;;;;;;;;;;;;9.77;100.00;99617.09;4980954;28;19925;-85
2023/08/06 22:44:08;;;;;;;;;;;;;;;9.77;100.00;99614.47;4983794;28;19929;-86
2023/08/06 22:46:33;;;;;;;;;;;;;;;9.69;100.00;99613.94;4984536;28;19929;-87
2023/08/06 22:48:58;;;;;;;;;;;;;;;9.74;100.00;99612.78;4984110;28;19918;-87
2023/08/06 22:51:27;;;;;;;;;;;;;;;9.78;100.00;99613.53;4983846;28;19922;-87
2023/08/06 22:53:52;;;;;;;;;;;;;;;9.75;100.00;99608.38;4982864;28;20396;-86
2023/08/06 22:56:17;;;;;;;;;;;;;;;9.85;100.00;99604.41;4982616;28;20018;-87
2023/08/06 22:58:42;;;;;;;;;;;;;;;9.79;100.00;99609.97;4982543;28;19929;-87
2023/08/06 23:01:08;;;;;;;;;;;;;;;9.76;100.00;99615.38;4984587;28;19922;-87
2023/08/06 23:03:34;;;;;;;;;;;;;;;9.78;100.00;99609.09;4983235;28;19917;-87
2023/08/06 23:05:59;;;;;;;;;;;;;;;9.62;100.00;99614.19;4983400;28;19977;-87
2023/08/06 23:08:24;;;;;;;;;;;;;;;9.71;100.00;99617.38;4983209;28;20355;-86
2023/08/06 23:10:49;;;;;;;;;;;;;;;9.74;100.00;99611.94;4982143;28;19921;-86
2023/08/06 23:13:15;;;;;;;;;;;;;;;9.72;100.00;99614.66;4998209;28;20022;-85
2023/08/06 23:15:42;;;;;;;;;;;;;;;9.78;100.00;99616.16;4983116;28;20301;-85
2023/08/06 23:18:07;;;;;;;;;;;;;;;9.72;100.00;99625.25;4981829;28;19944;-87
2023/08/06 23:20:32;;;;;;;;;;;;;;;9.68;100.00;99620.13;4983400;28;20306;-88
2023/08/06 23:23:00;;;;;;;;;;;;;;;9.80;100.00;99617.84;4983659;28;19968;-88
2023/08/06 23:25:25;;;;;;;;;;;;;;;9.68;100.00;99620.13;4981817;28;19918;-87
2023/08/06 23:27:50;;;;;;;;;;;;;;;9.80;100.00;99628.41;4982335;28;20024;-87
2023/08/06 23:30:23;;;;;;;;;;;;;;;9.73;100.00;99626.97;4983517;28;19918;-87
2023/08/06 23:32:49;;;;;;;;;;;;;;;9.80;100.00;99628.41;4982938;28;20025;-87
2023/08/06 23:35:16;;;;;;;;;;;;;;;9.81;100.00;99630.16;4982162;28;20191;-87
2023/08/06 23:37:47;;;;;;;;;;;;;;;9.84;100.00;99630.94;4982494;28;20321;-91
